createdAt,value
2018-04-06T00:00:40.348Z,7.20
2018-04-06T00:03:08.207Z,7.20
2018-04-06T00:05:36.069Z,7.10
2018-04-06T00:08:04.447Z,7.20
2018-04-06T00:10:33.068Z,7.00
2018-04-06T00:13:00.857Z,7.00
2018-04-06T00:15:29.571Z,7.10
2018-04-06T00:17:57.528Z,7.10
2018-04-06T00:20:25.866Z,7.00
2018-04-06T00:22:53.727Z,6.90
2018-04-06T00:25:21.687Z,6.90
2018-04-06T00:27:49.466Z,6.80
2018-04-06T00:30:18.508Z,6.80
2018-04-06T00:32:46.406Z,6.80
2018-04-06T00:35:14.226Z,6.80
2018-04-06T00:37:42.487Z,6.70
2018-04-06T00:40:11.390Z,6.60
2018-04-06T00:42:39.287Z,6.50
2018-04-06T00:45:07.210Z,6.60
2018-04-06T00:47:35.059Z,6.60
2018-04-06T00:50:02.967Z,6.70
2018-04-06T00:52:30.907Z,6.90
2018-04-06T00:54:59.206Z,7.10
2018-04-06T00:57:27.067Z,7.30
2018-04-06T00:59:55.167Z,7.40
2018-04-06T01:02:23.007Z,7.40
2018-04-06T01:04:51.127Z,7.60
2018-04-06T01:07:18.966Z,7.60
2018-04-06T01:09:46.848Z,7.70
2018-04-06T01:12:14.806Z,7.80
2018-04-06T01:14:42.626Z,7.90
2018-04-06T01:17:10.447Z,7.90
2018-04-06T01:19:38.526Z,7.90
2018-04-06T01:22:06.507Z,7.90
2018-04-06T01:24:34.407Z,7.90
2018-04-06T01:27:02.366Z,7.90
2018-04-06T01:29:31.749Z,7.90
2018-04-06T01:32:01.047Z,7.80
2018-04-06T01:34:28.947Z,7.80
2018-04-06T01:36:56.974Z,7.80
2018-04-06T01:39:24.809Z,7.80
2018-04-06T01:41:52.668Z,7.80
2018-04-06T01:44:20.506Z,7.80
2018-04-06T01:46:48.607Z,7.80
2018-04-06T01:49:16.566Z,7.80
2018-04-06T01:51:44.593Z,7.70
2018-04-06T01:54:12.693Z,7.70
2018-04-06T01:56:40.567Z,7.70
2018-04-06T01:59:08.467Z,7.70
2018-04-06T02:01:36.289Z,7.70
2018-04-06T02:04:04.169Z,7.70
2018-04-06T02:06:32.369Z,7.70
2018-04-06T02:09:00.229Z,7.60
2018-04-06T02:11:29.447Z,7.60
2018-04-06T02:13:57.268Z,7.60
2018-04-06T02:16:25.245Z,7.60
2018-04-06T02:18:53.286Z,7.50
2018-04-06T02:21:21.188Z,7.50
2018-04-06T02:23:49.106Z,7.60
2018-04-06T02:26:16.926Z,7.50
2018-04-06T02:28:44.846Z,7.50
2018-04-06T02:31:13.066Z,7.50
2018-04-06T02:33:41.025Z,7.50
2018-04-06T02:36:08.846Z,7.50
2018-04-06T02:38:36.726Z,7.50
2018-04-06T02:41:05.008Z,7.40
2018-04-06T02:43:32.847Z,7.50
2018-04-06T02:46:00.787Z,7.50
2018-04-06T02:48:28.773Z,7.40
2018-04-06T02:50:57.327Z,7.40
2018-04-06T02:53:25.226Z,7.40
2018-04-06T02:55:53.187Z,7.40
2018-04-06T02:58:21.087Z,7.40
2018-04-06T03:00:49.348Z,7.40
2018-04-06T03:03:18.228Z,7.50
2018-04-06T03:05:46.488Z,7.50
2018-04-06T03:08:14.688Z,7.50
2018-04-06T03:10:42.568Z,7.50
2018-04-06T03:13:11.009Z,7.50
2018-04-06T03:15:38.989Z,7.50
2018-04-06T03:18:07.290Z,7.50
2018-04-06T03:20:35.528Z,7.50
2018-04-06T03:23:03.428Z,7.50
2018-04-06T03:25:31.429Z,7.50
2018-04-06T03:28:00.288Z,7.50
2018-04-06T03:30:28.148Z,7.40
2018-04-06T03:32:55.968Z,7.40
2018-04-06T03:35:24.348Z,7.40
2018-04-06T03:37:52.428Z,7.40
2018-04-06T03:40:20.214Z,7.40
2018-04-06T03:42:48.288Z,7.50
2018-04-06T03:45:16.388Z,7.50
2018-04-06T03:47:44.308Z,7.40
2018-04-06T03:50:12.312Z,7.40
2018-04-06T03:52:40.312Z,7.40
2018-04-06T03:55:08.228Z,7.40
2018-04-06T03:57:36.387Z,7.40
2018-04-06T04:00:04.328Z,7.40
2018-04-06T04:02:32.050Z,7.40
2018-04-06T04:05:00.030Z,7.30
2018-04-06T04:07:28.250Z,7.30
2018-04-06T04:09:56.872Z,7.30
2018-04-06T04:12:24.810Z,7.30
2018-04-06T04:14:52.568Z,7.30
2018-04-06T04:17:20.294Z,7.20
2018-04-06T04:19:47.954Z,7.20
2018-04-06T04:22:15.874Z,7.20
2018-04-06T04:24:44.055Z,7.20
2018-04-06T04:27:11.915Z,7.20
2018-04-06T04:29:39.855Z,7.20
2018-04-06T04:32:07.696Z,7.20
2018-04-06T04:34:35.775Z,7.20
2018-04-06T04:37:03.516Z,7.20
2018-04-06T04:39:31.503Z,7.20
2018-04-06T04:41:59.515Z,7.20
2018-04-06T04:44:27.296Z,7.20
2018-04-06T04:46:56.315Z,7.30
2018-04-06T04:49:24.275Z,7.30
2018-04-06T04:51:52.130Z,7.40
2018-04-06T04:54:20.029Z,7.50
2018-04-06T04:56:47.969Z,7.60
2018-04-06T04:59:15.818Z,7.80
2018-04-06T05:01:43.658Z,7.90
2018-04-06T05:04:11.492Z,8.10
2018-04-06T05:06:39.660Z,8.20
2018-04-06T05:09:07.773Z,8.40
2018-04-06T05:11:35.527Z,8.50
2018-04-06T05:14:03.771Z,8.70
2018-04-06T05:16:36.037Z,8.90
2018-04-06T05:19:04.292Z,9.10
2018-04-06T05:21:32.131Z,9.30
2018-04-06T05:24:00.613Z,9.40
2018-04-06T05:26:28.811Z,9.60
2018-04-06T05:28:57.351Z,10.00
2018-04-06T05:31:25.353Z,9.90
2018-04-06T05:33:53.191Z,10.10
2018-04-06T05:38:52.870Z,10.40
2018-04-06T05:41:20.811Z,10.50
2018-04-06T05:43:48.748Z,10.60
2018-04-06T05:46:16.487Z,10.80
2018-04-06T05:48:44.366Z,10.90
2018-04-06T05:51:12.326Z,11.00
2018-04-06T05:53:40.308Z,10.80
2018-04-06T05:56:09.186Z,11.20
2018-04-06T05:58:37.139Z,11.20
2018-04-06T06:01:06.491Z,11.30
2018-04-06T06:03:34.350Z,11.40
2018-04-06T06:06:03.169Z,12.00
2018-04-06T06:08:31.148Z,12.00
2018-04-06T06:10:58.989Z,12.50
2018-04-06T06:13:26.949Z,13.00
2018-04-06T06:15:55.608Z,13.40
2018-04-06T06:18:23.447Z,13.40
2018-04-06T06:20:51.328Z,13.90
2018-04-06T06:23:19.083Z,14.30
2018-04-06T06:25:46.908Z,14.50
2018-04-06T06:28:14.768Z,14.60
2018-04-06T06:30:42.634Z,14.60
2018-04-06T06:33:11.227Z,14.40
2018-04-06T06:35:39.080Z,14.40
2018-04-06T06:38:06.867Z,14.30
2018-04-06T06:40:34.727Z,14.10
2018-04-06T06:43:02.570Z,14.00
2018-04-06T06:45:30.367Z,14.40
2018-04-06T06:47:58.205Z,16.00
2018-04-06T06:50:26.006Z,17.50
2018-04-06T06:52:54.646Z,19.00
2018-04-06T06:55:22.508Z,19.00
2018-04-06T06:57:50.413Z,17.80
2018-04-06T07:00:18.082Z,17.80
2018-04-06T07:02:46.048Z,17.90
2018-04-06T07:05:13.925Z,16.40
2018-04-06T07:07:41.694Z,15.00
2018-04-06T07:10:10.267Z,13.70
2018-04-06T07:12:38.153Z,13.70
2018-04-06T07:15:05.948Z,13.60
2018-04-06T07:17:33.726Z,13.40
2018-04-06T07:20:01.548Z,13.50
2018-04-06T07:22:29.625Z,13.60
2018-04-06T07:24:57.386Z,13.90
2018-04-06T07:27:25.225Z,14.50
2018-04-06T07:29:53.006Z,14.90
2018-04-06T07:32:20.890Z,15.00
2018-04-06T07:34:48.706Z,15.40
2018-04-06T07:37:16.526Z,15.80
2018-04-06T07:39:44.389Z,16.00
2018-04-06T07:42:12.286Z,16.00
2018-04-06T07:44:40.087Z,16.00
2018-04-06T07:47:07.876Z,16.00
2018-04-06T07:49:35.892Z,16.20
2018-04-06T07:52:03.805Z,16.30
2018-04-06T07:54:31.709Z,16.80
2018-04-06T07:56:59.549Z,16.90
2018-04-06T07:59:27.288Z,16.80
2018-04-06T08:01:55.167Z,16.80
2018-04-06T08:04:23.005Z,17.10
2018-04-06T08:06:50.825Z,17.40
2018-04-06T08:09:18.546Z,17.40
2018-04-06T08:11:46.488Z,17.10
2018-04-06T08:14:14.486Z,17.20
2018-04-06T08:16:42.309Z,17.30
2018-04-06T08:19:10.048Z,17.50
2018-04-06T08:21:37.986Z,18.00
2018-04-06T08:24:05.815Z,18.10
2018-04-06T08:26:33.606Z,17.90
2018-04-06T08:29:01.446Z,17.40
2018-04-06T08:31:29.189Z,17.20
2018-04-06T08:33:57.726Z,16.50
2018-04-06T08:36:25.566Z,16.50
2018-04-06T08:38:53.310Z,16.40
2018-04-06T08:41:21.126Z,16.10
2018-04-06T08:43:48.954Z,16.00
2018-04-06T08:46:16.692Z,15.60
2018-04-06T08:48:44.592Z,15.40
2018-04-06T08:51:12.407Z,15.30
2018-04-06T08:53:40.946Z,15.30
2018-04-06T08:56:09.565Z,15.20
2018-04-06T08:58:37.526Z,15.20
2018-04-06T09:01:05.326Z,15.10
2018-04-06T09:03:33.334Z,15.10
2018-04-06T09:06:01.256Z,15.20
2018-04-06T09:08:29.143Z,15.20
2018-04-06T09:10:57.039Z,15.10
2018-04-06T09:13:24.929Z,15.20
2018-04-06T09:15:52.847Z,15.10
2018-04-06T09:18:20.986Z,15.00
2018-04-06T09:20:49.266Z,15.10
2018-04-06T09:23:17.085Z,15.00
2018-04-06T09:25:44.970Z,15.00
2018-04-06T09:28:12.786Z,14.90
2018-04-06T09:30:41.366Z,15.10
2018-04-06T09:33:10.366Z,15.30
2018-04-06T09:35:38.287Z,15.50
2018-04-06T09:38:06.088Z,15.60
2018-04-06T09:40:34.110Z,15.90
2018-04-06T09:43:02.026Z,16.00
2018-04-06T09:45:30.166Z,16.20
2018-04-06T09:47:58.174Z,16.20
2018-04-06T09:50:26.423Z,16.20
2018-04-06T09:52:54.266Z,16.10
2018-04-06T09:55:22.146Z,15.90
2018-04-06T09:57:50.325Z,15.80
2018-04-06T10:00:24.479Z,15.80
2018-04-06T10:02:52.562Z,15.90
2018-04-06T10:05:20.492Z,16.10
2018-04-06T10:07:48.227Z,16.40
2018-04-06T10:10:16.126Z,16.40
2018-04-06T10:12:43.928Z,16.00
2018-04-06T10:17:43.848Z,15.30
2018-04-06T10:20:11.769Z,15.40
2018-04-06T10:22:40.286Z,15.40
2018-04-06T10:25:08.968Z,15.20
2018-04-06T10:27:36.928Z,15.20
2018-04-06T10:30:04.789Z,15.10
2018-04-06T10:32:32.607Z,14.90
2018-04-06T10:35:00.768Z,14.50
2018-04-06T10:37:28.668Z,14.40
2018-04-06T10:39:56.447Z,14.50
2018-04-06T10:42:24.406Z,14.60
2018-04-06T10:44:52.207Z,14.70
2018-04-06T10:47:20.208Z,14.80
2018-04-06T10:49:48.707Z,14.90
2018-04-06T10:52:16.609Z,14.90
2018-04-06T10:54:44.451Z,15.00
2018-04-06T10:57:12.329Z,15.30
2018-04-06T10:59:40.127Z,15.50
2018-04-06T11:02:08.046Z,15.30
2018-04-06T11:04:36.747Z,15.70
2018-04-06T11:07:04.606Z,15.70
2018-04-06T11:09:32.629Z,15.90
2018-04-06T11:12:00.367Z,15.90
2018-04-06T11:14:28.306Z,15.80
2018-04-06T11:16:56.608Z,15.80
2018-04-06T11:19:24.466Z,16.00
2018-04-06T11:21:52.349Z,16.10
2018-04-06T11:24:20.206Z,16.10
2018-04-06T11:26:48.067Z,16.10
2018-04-06T11:29:15.887Z,16.00
2018-04-06T11:31:43.848Z,16.00
2018-04-06T11:34:11.827Z,16.00
2018-04-06T11:36:39.747Z,16.00
2018-04-06T11:39:07.654Z,15.80
2018-04-06T11:41:35.586Z,15.00
2018-04-06T11:44:03.529Z,14.70
2018-04-06T11:46:32.146Z,14.40
2018-04-06T11:49:00.150Z,14.30
2018-04-06T11:51:27.966Z,14.60
2018-04-06T11:53:55.805Z,14.80
2018-04-06T11:56:23.966Z,14.90
2018-04-06T11:58:51.885Z,14.90
2018-04-06T12:01:19.850Z,14.70
2018-04-06T12:03:47.770Z,14.80
2018-04-06T12:06:15.935Z,14.70
2018-04-06T12:08:44.230Z,14.70
2018-04-06T12:11:12.152Z,14.80
2018-04-06T12:13:40.973Z,15.00
2018-04-06T12:16:08.969Z,14.90
2018-04-06T12:18:36.894Z,14.70
2018-04-06T12:21:04.730Z,15.00
2018-04-06T12:23:32.572Z,15.10
2018-04-06T12:26:00.450Z,15.30
2018-04-06T12:28:28.490Z,15.20
2018-04-06T12:30:56.389Z,15.30
2018-04-06T12:33:24.449Z,15.30
2018-04-06T12:35:52.409Z,15.30
2018-04-06T12:38:20.269Z,15.20
2018-04-06T12:40:48.090Z,15.10
2018-04-06T12:43:15.891Z,15.00
2018-04-06T12:45:43.750Z,15.10
2018-04-06T12:48:11.589Z,15.20
2018-04-06T12:50:40.147Z,15.30
2018-04-06T12:53:07.907Z,15.30
2018-04-06T12:55:35.791Z,15.40
2018-04-06T12:58:03.728Z,15.40
2018-04-06T13:00:31.561Z,15.30
2018-04-06T13:02:59.457Z,15.30
2018-04-06T13:05:27.369Z,15.30
2018-04-06T13:07:55.327Z,15.30
2018-04-06T13:10:23.268Z,15.30
2018-04-06T13:12:51.192Z,15.10
2018-04-06T13:15:19.107Z,15.00
2018-04-06T13:17:47.050Z,15.00
2018-04-06T13:22:46.968Z,14.90
2018-04-06T13:25:14.748Z,15.00
2018-04-06T13:27:43.009Z,15.00
2018-04-06T13:30:11.209Z,15.10
2018-04-06T13:32:39.208Z,15.20
2018-04-06T13:35:07.110Z,15.20
2018-04-06T13:37:35.267Z,15.30
2018-04-06T13:40:03.107Z,15.40
2018-04-06T13:42:31.007Z,15.40
2018-04-06T13:44:58.915Z,15.40
2018-04-06T13:47:26.834Z,15.40
2018-04-06T13:49:54.754Z,15.30
2018-04-06T13:52:22.693Z,15.20
2018-04-06T13:54:51.095Z,15.20
2018-04-06T13:57:18.991Z,15.30
2018-04-06T13:59:46.853Z,15.00
2018-04-06T14:02:14.691Z,15.00
2018-04-06T14:04:42.550Z,15.00
2018-04-06T14:07:10.370Z,15.00
2018-04-06T14:09:39.031Z,15.10
2018-04-06T14:12:07.531Z,15.00
2018-04-06T14:14:35.731Z,15.00
2018-04-06T14:17:03.966Z,14.80
2018-04-06T14:19:31.874Z,14.70
2018-04-06T14:21:59.792Z,14.60
2018-04-06T14:24:27.732Z,14.60
2018-04-06T14:26:55.655Z,14.60
2018-04-06T14:29:25.070Z,14.30
2018-04-06T14:31:52.948Z,14.30
2018-04-06T14:34:20.768Z,14.40
2018-04-06T14:36:48.626Z,14.40
2018-04-06T14:39:16.447Z,14.40
2018-04-06T14:41:44.387Z,14.40
2018-04-06T14:44:13.827Z,14.50
2018-04-06T14:46:41.686Z,14.60
2018-04-06T14:49:09.668Z,14.60
2018-04-06T14:51:37.527Z,14.50
2018-04-06T14:54:06.489Z,14.30
2018-04-06T14:56:34.487Z,14.30
2018-04-06T14:59:02.250Z,14.10
2018-04-06T15:01:30.170Z,14.10
2018-04-06T15:03:58.130Z,14.00
2018-04-06T15:06:26.016Z,14.00
2018-04-06T15:08:54.046Z,13.90
2018-04-06T15:11:21.886Z,13.90
2018-04-06T15:13:51.017Z,13.80
2018-04-06T15:16:19.048Z,13.90
2018-04-06T15:18:48.349Z,13.90
2018-04-06T15:21:16.327Z,13.90
2018-04-06T15:23:44.288Z,14.10
2018-04-06T15:26:12.206Z,14.20
2018-04-06T15:28:40.628Z,14.20
2018-04-06T15:31:08.508Z,14.10
2018-04-06T15:33:36.366Z,14.10
2018-04-06T15:36:04.370Z,14.10
2018-04-06T15:38:32.826Z,14.10
2018-04-06T15:41:00.750Z,14.10
2018-04-06T15:43:28.988Z,13.90
2018-04-06T15:45:56.812Z,13.90
2018-04-06T15:48:24.665Z,13.80
2018-04-06T15:50:52.454Z,13.80
2018-04-06T15:53:20.989Z,13.80
2018-04-06T15:55:48.971Z,13.80
2018-04-06T15:58:16.832Z,13.80
2018-04-06T16:00:44.735Z,13.70
2018-04-06T16:03:12.689Z,13.60
2018-04-06T16:05:40.688Z,13.60
2018-04-06T16:08:09.008Z,13.70
2018-04-06T16:10:37.089Z,13.70
2018-04-06T16:13:05.342Z,13.60
2018-04-06T16:15:33.171Z,13.60
2018-04-06T16:18:01.131Z,13.50
2018-04-06T16:20:29.051Z,13.40
2018-04-06T16:22:56.930Z,13.40
2018-04-06T16:25:24.868Z,13.30
2018-04-06T16:27:52.731Z,13.30
2018-04-06T16:30:20.531Z,13.30
2018-04-06T16:32:49.569Z,13.20
2018-04-06T16:35:17.459Z,13.20
2018-04-06T16:37:45.288Z,13.20
2018-04-06T16:40:13.211Z,13.20
2018-04-06T16:42:42.311Z,13.10
2018-04-06T16:45:11.950Z,13.10
2018-04-06T16:47:40.009Z,13.10
2018-04-06T16:50:07.867Z,13.00
2018-04-06T16:52:36.651Z,13.00
2018-04-06T16:55:04.351Z,13.00
2018-04-06T16:57:32.227Z,13.00
2018-04-06T17:00:00.092Z,12.90
2018-04-06T17:02:28.136Z,12.90
2018-04-06T17:04:55.975Z,12.80
2018-04-06T17:07:23.915Z,12.80
2018-04-06T17:09:51.792Z,12.70
2018-04-06T17:12:20.129Z,12.70
2018-04-06T17:14:48.929Z,12.60
2018-04-06T17:17:16.888Z,12.60
2018-04-06T17:19:44.943Z,12.40
2018-04-06T17:22:12.678Z,12.20
2018-04-06T17:24:41.751Z,11.90
2018-04-06T17:27:09.612Z,11.80
2018-04-06T17:29:37.473Z,11.60
2018-04-06T17:32:05.652Z,11.50
2018-04-06T17:34:34.212Z,11.30
2018-04-06T17:37:02.200Z,11.20
2018-04-06T17:39:30.193Z,11.20
2018-04-06T17:41:58.095Z,11.10
2018-04-06T17:44:26.011Z,11.00
2018-04-06T17:46:53.913Z,11.00
2018-04-06T17:49:21.542Z,10.90
2018-04-06T17:51:49.932Z,10.80
2018-04-06T17:54:18.093Z,10.70
2018-04-06T17:56:46.270Z,10.60
2018-04-06T17:59:15.033Z,10.60
2018-04-06T18:01:42.813Z,10.50
2018-04-06T18:04:13.487Z,10.50
2018-04-06T18:06:43.814Z,10.30
2018-04-06T18:09:12.769Z,10.30
2018-04-06T18:11:42.147Z,10.30
2018-04-06T18:14:10.967Z,10.20
2018-04-06T18:16:40.320Z,10.10
2018-04-06T18:19:09.575Z,10.00
2018-04-06T18:21:37.634Z,10.00
2018-04-06T18:24:06.411Z,10.00
2018-04-06T18:26:35.980Z,10.10
2018-04-06T18:29:04.410Z,10.10
2018-04-06T18:31:34.162Z,10.10
2018-04-06T18:34:03.834Z,10.10
2018-04-06T18:36:31.752Z,10.10
2018-04-06T18:39:01.024Z,9.90
2018-04-06T18:41:30.797Z,9.90
2018-04-06T18:43:59.849Z,9.80
2018-04-06T18:46:29.732Z,9.80
2018-04-06T18:48:58.010Z,9.60
2018-04-06T18:51:25.948Z,9.60
2018-04-06T18:53:54.156Z,9.40
2018-04-06T18:56:22.356Z,9.40
2018-04-06T18:58:51.488Z,9.30
2018-04-06T19:01:19.820Z,9.30
2018-04-06T19:03:50.112Z,9.20
2018-04-06T19:06:35.995Z,9.20
2018-04-06T19:09:07.273Z,9.10
2018-04-06T19:11:36.893Z,9.10
2018-04-06T19:14:09.052Z,9.00
2018-04-06T19:16:44.389Z,8.90
2018-04-06T19:19:30.406Z,8.80
2018-04-06T19:24:30.793Z,8.80
2018-04-06T19:27:00.934Z,8.80
2018-04-06T19:29:29.574Z,8.80
2018-04-06T19:31:58.044Z,8.80
2018-04-06T19:34:26.114Z,8.80
2018-04-06T19:39:25.936Z,8.70
2018-04-06T19:41:53.888Z,8.60
2018-04-06T19:44:23.068Z,8.40
2018-04-06T19:46:50.927Z,8.40
2018-04-06T19:49:18.812Z,8.40
2018-04-06T19:51:47.165Z,8.40
2018-04-06T19:54:15.891Z,8.30
2018-04-06T19:56:43.922Z,8.30
2018-04-06T19:59:17.883Z,8.30
2018-04-06T20:01:47.064Z,8.30
2018-04-06T20:04:18.163Z,8.20
2018-04-06T20:06:47.025Z,8.20
2018-04-06T20:09:23.931Z,8.20
2018-04-06T20:12:01.299Z,8.20
2018-04-06T20:14:29.733Z,8.20
2018-04-06T20:16:57.669Z,8.20
2018-04-06T20:22:27.807Z,8.10
2018-04-06T20:24:58.078Z,8.10
2018-04-06T20:30:35.908Z,8.00
2018-04-06T20:33:05.174Z,8.00
2018-04-06T20:35:33.073Z,8.00
2018-04-06T20:38:01.709Z,8.10
2018-04-06T20:40:29.493Z,8.20
2018-04-06T20:42:57.687Z,8.20
2018-04-06T20:45:25.523Z,8.20
2018-04-06T20:47:54.469Z,8.20
2018-04-06T20:50:22.927Z,8.20
2018-04-06T20:55:42.747Z,8.30
2018-04-06T20:58:33.422Z,8.40
2018-04-06T21:01:05.213Z,8.30
2018-04-06T21:03:33.448Z,8.40
2018-04-06T21:06:01.253Z,8.40
2018-04-06T21:08:30.269Z,8.40
2018-04-06T21:10:58.847Z,8.40
2018-04-06T21:13:26.896Z,8.40
2018-04-06T21:15:59.766Z,8.40
2018-04-06T21:18:29.956Z,8.40
2018-04-06T21:20:59.467Z,8.40
2018-04-06T21:23:28.411Z,8.40
2018-04-06T21:25:56.692Z,8.50
2018-04-06T21:28:24.609Z,8.40
2018-04-06T21:30:53.048Z,8.40
2018-04-06T21:33:22.469Z,8.40
2018-04-06T21:35:53.730Z,8.40
2018-04-06T21:38:24.608Z,8.40
2018-04-06T21:40:53.650Z,8.30
2018-04-06T21:43:24.466Z,8.20
2018-04-06T21:46:04.534Z,8.20
2018-04-06T21:48:37.896Z,8.20
2018-04-06T21:51:08.526Z,8.20
2018-04-06T21:53:36.431Z,8.20
2018-04-06T21:56:04.387Z,8.10
2018-04-06T21:58:33.680Z,8.20
2018-04-06T22:01:01.446Z,8.10
2018-04-06T22:03:29.470Z,8.10
2018-04-06T22:05:57.328Z,8.10
2018-04-06T22:08:25.289Z,8.00
2018-04-06T22:10:53.127Z,7.90
2018-04-06T22:13:20.905Z,7.90
2018-04-06T22:15:48.613Z,7.90
2018-04-06T22:18:16.354Z,7.90
2018-04-06T22:20:44.088Z,7.80
2018-04-06T22:23:11.818Z,7.70
2018-04-06T22:25:39.566Z,7.60
2018-04-06T22:30:40.249Z,7.50
2018-04-06T22:33:08.571Z,7.40
2018-04-06T22:35:36.356Z,7.40
2018-04-06T22:38:04.145Z,7.40
2018-04-06T22:40:31.888Z,7.30
2018-04-06T22:43:00.657Z,7.20
2018-04-06T22:45:28.396Z,7.20
2018-04-06T22:47:57.060Z,7.10
2018-04-06T22:50:24.793Z,7.10
2018-04-06T22:52:52.552Z,7.20
2018-04-06T22:55:20.333Z,7.10
2018-04-06T22:57:48.033Z,7.10
2018-04-06T23:00:15.863Z,7.00
2018-04-06T23:02:43.670Z,7.00
2018-04-06T23:05:11.377Z,7.00
2018-04-06T23:07:39.168Z,7.00
2018-04-06T23:10:06.908Z,6.90
2018-04-06T23:12:34.662Z,6.80
2018-04-06T23:15:02.348Z,6.80
2018-04-06T23:17:30.079Z,6.80
2018-04-06T23:19:57.847Z,6.80
2018-04-06T23:22:25.547Z,6.80
2018-04-06T23:24:53.251Z,6.80
2018-04-06T23:27:28.840Z,6.80
2018-04-06T23:29:56.546Z,6.80
2018-04-06T23:32:24.347Z,6.80
2018-04-06T23:34:52.069Z,6.80
2018-04-06T23:37:20.588Z,6.80
2018-04-06T23:39:48.407Z,6.70
2018-04-06T23:42:16.127Z,6.80
2018-04-06T23:44:43.846Z,6.80
2018-04-06T23:47:11.576Z,6.80
2018-04-06T23:49:39.327Z,6.70
2018-04-06T23:52:07.087Z,6.50
2018-04-06T23:54:34.807Z,6.40
2018-04-06T23:57:02.547Z,6.40
2018-04-06T23:59:31.087Z,6.40
